Time;durP1;ratioP1;P1;durP2;ratioP2;P2;SDS_P1;SDS_P2;PMS_P1;PMS_P2;Temp;Humidity;BMP_temperature;BMP_pressure;BME280_temperature;BME280_humidity;BME280_pressure;Samples;Min_cycle;Max_cycle;Signal;HPM_P1;HPM_P2
2023/04/11 00:00:36;;;;;;;1.77;1.23;;;;;;;;;;4993737;28;20057;-79
2023/04/11 00:03:02;;;;;;;3.55;1.25;;;;;;;;;;4993334;28;20054;-79
2023/04/11 00:05:32;;;;;;;1.88;0.90;;;;;;;;;;4993340;28;20541;-80
2023/04/11 00:07:59;;;;;;;1.95;1.10;;;;;;;;;;4992973;28;20047;-79
2023/04/11 00:10:26;;;;;;;2.60;1.20;;;;;;;;;;4992779;28;20046;-79
2023/04/11 00:12:55;;;;;;;4.05;1.60;;;;;;;;;;5010115;28;20061;-79
2023/04/11 00:15:28;;;;;;;2.33;1.10;;;;;;;;;;4993271;28;20069;-79
2023/04/11 00:17:57;;;;;;;2.65;1.27;;;;;;;;;;4993219;28;20430;-79
2023/04/11 00:20:24;;;;;;;2.78;1.00;;;;;;;;;;4993106;28;20097;-79
2023/04/11 00:22:52;;;;;;;5.97;1.30;;;;;;;;;;4992656;28;20133;-79
2023/04/11 00:25:19;;;;;;;1.88;1.35;;;;;;;;;;4992492;28;20137;-79
2023/04/11 00:27:46;;;;;;;4.00;1.02;;;;;;;;;;4992628;28;20054;-80
2023/04/11 00:30:13;;;;;;;3.95;1.40;;;;;;;;;;4992461;28;20051;-79
2023/04/11 00:32:40;;;;;;;1.75;0.88;;;;;;;;;;4992413;28;20054;-79
2023/04/11 00:35:07;;;;;;;4.57;1.27;;;;;;;;;;4994088;28;20054;-79
2023/04/11 00:37:34;;;;;;;1.75;1.42;;;;;;;;;;4977743;28;20055;-78
2023/04/11 00:40:04;;;;;;;1.55;1.05;;;;;;;;;;4992061;28;20077;-78
2023/04/11 00:42:32;;;;;;;3.05;1.00;;;;;;;;;;4992679;28;20061;-77
2023/04/11 00:44:58;;;;;;;2.35;0.90;;;;;;;;;;4992221;28;20053;-78
2023/04/11 00:47:25;;;;;;;3.03;1.10;;;;;;;;;;4976108;28;20054;-78
2023/04/11 00:49:52;;;;;;;1.52;1.10;;;;;;;;;;5008215;28;20081;-79
2023/04/11 00:52:19;;;;;;;2.72;1.00;;;;;;;;;;4992172;28;20046;-79
2023/04/11 00:54:45;;;;;;;2.75;1.20;;;;;;;;;;4992739;28;20042;-79
2023/04/11 00:57:12;;;;;;;1.90;1.13;;;;;;;;;;4992668;28;20054;-79
2023/04/11 00:59:39;;;;;;;2.15;1.13;;;;;;;;;;4992057;28;20444;-79
2023/04/11 01:02:06;;;;;;;4.35;1.10;;;;;;;;;;4992275;28;20057;-79
2023/04/11 01:04:33;;;;;;;3.05;1.02;;;;;;;;;;4992051;28;20105;-79
2023/04/11 01:07:04;;;;;;;1.92;1.08;;;;;;;;;;5008238;28;20113;-79
2023/04/11 01:09:33;;;;;;;1.80;1.10;;;;;;;;;;4976365;28;20066;-79
2023/04/11 01:12:02;;;;;;;3.47;1.05;;;;;;;;;;4975667;28;20050;-80
2023/04/11 01:14:29;;;;;;;1.67;1.15;;;;;;;;;;4992300;28;20137;-79
2023/04/11 01:16:56;;;;;;;1.48;1.08;;;;;;;;;;4991983;28;20062;-79
2023/04/11 01:19:25;;;;;;;1.48;1.00;;;;;;;;;;4990874;28;20553;-79
2023/04/11 01:21:53;;;;;;;1.77;1.10;;;;;;;;;;4991690;28;20062;-79
2023/04/11 01:24:19;;;;;;;3.00;1.20;;;;;;;;;;4991847;28;20049;-79
2023/04/11 01:26:46;;;;;;;2.05;1.27;;;;;;;;;;4991451;28;20585;-80
2023/04/11 01:29:13;;;;;;;2.72;1.40;;;;;;;;;;4991612;28;20050;-79
2023/04/11 01:31:40;;;;;;;2.92;1.00;;;;;;;;;;4991473;28;20054;-79
2023/04/11 01:34:06;;;;;;;1.52;1.00;;;;;;;;;;4991552;28;20101;-79
2023/04/11 01:36:33;;;;;;;1.42;0.90;;;;;;;;;;5007477;28;20056;-79
2023/04/11 01:39:00;;;;;;;2.38;1.20;;;;;;;;;;5007653;28;20061;-79
2023/04/11 01:41:27;;;;;;;3.25;1.40;;;;;;;;;;4976197;28;20058;-80
2023/04/11 01:43:53;;;;;;;3.08;1.40;;;;;;;;;;4992253;28;20403;-79
2023/04/11 01:46:20;;;;;;;2.53;1.55;;;;;;;;;;4991934;28;20050;-80
2023/04/11 01:48:49;;;;;;;5.65;1.42;;;;;;;;;;4975537;28;20054;-80
2023/04/11 01:51:16;;;;;;;2.28;1.00;;;;;;;;;;4991448;28;20046;-79
2023/04/11 01:53:46;;;;;;;3.20;1.30;;;;;;;;;;4991195;28;20058;-79
2023/04/11 01:56:13;;;;;;;2.50;1.58;;;;;;;;;;4975520;28;20076;-79
2023/04/11 01:58:40;;;;;;;1.95;1.20;;;;;;;;;;4991003;28;20054;-79
2023/04/11 02:01:07;;;;;;;2.38;1.23;;;;;;;;;;4974548;28;20077;-79
2023/04/11 02:03:35;;;;;;;1.35;1.17;;;;;;;;;;4990714;28;20140;-79
2023/04/11 02:06:02;;;;;;;4.10;1.63;;;;;;;;;;4990922;28;20132;-79
2023/04/11 02:08:29;;;;;;;3.17;1.90;;;;;;;;;;4974744;28;20053;-79
2023/04/11 02:10:56;;;;;;;2.92;1.58;;;;;;;;;;4990814;28;20060;-79
2023/04/11 02:13:23;;;;;;;2.58;1.95;;;;;;;;;;5007155;28;20495;-79
2023/04/11 02:15:49;;;;;;;4.22;2.20;;;;;;;;;;4990931;28;20050;-79
2023/04/11 02:18:16;;;;;;;2.40;1.63;;;;;;;;;;5007122;28;20056;-79
2023/04/11 02:24:24;;;;;;;3.42;1.70;;;;;;;;;;5074144;23;20056;-73
2023/04/11 02:26:50;;;;;;;3.90;1.63;;;;;;;;;;4977602;28;20084;-73
2023/04/11 02:29:17;;;;;;;2.60;1.63;;;;;;;;;;4993795;28;20053;-74
2023/04/11 02:31:46;;;;;;;2.10;1.40;;;;;;;;;;5009860;28;20421;-74
2023/04/11 02:34:13;;;;;;;4.38;1.80;;;;;;;;;;5010788;28;20215;-74
2023/04/11 02:36:41;;;;;;;1.80;1.25;;;;;;;;;;4993585;28;20062;-74
2023/04/11 02:39:07;;;;;;;1.88;1.25;;;;;;;;;;4993834;28;20465;-74
2023/04/11 02:41:38;;;;;;;3.80;1.65;;;;;;;;;;4994695;28;20060;-74
2023/04/11 02:44:04;;;;;;;2.22;1.60;;;;;;;;;;4998947;28;20054;-74
2023/04/11 02:46:31;;;;;;;3.53;1.85;;;;;;;;;;4994456;28;20080;-75
2023/04/11 02:48:58;;;;;;;3.03;1.48;;;;;;;;;;4993973;28;20083;-75
2023/04/11 02:51:25;;;;;;;2.85;1.65;;;;;;;;;;4993795;28;20058;-75
2023/04/11 02:53:52;;;;;;;2.33;1.52;;;;;;;;;;4977810;28;20054;-75
2023/04/11 02:56:19;;;;;;;3.63;1.50;;;;;;;;;;4993919;28;20458;-75
2023/04/11 02:58:46;;;;;;;1.63;1.35;;;;;;;;;;4993816;28;20054;-75
2023/04/11 03:01:15;;;;;;;1.73;1.38;;;;;;;;;;4977513;28;20054;-75
2023/04/11 03:03:43;;;;;;;2.33;1.30;;;;;;;;;;4993455;28;20119;-75
2023/04/11 03:06:10;;;;;;;2.00;1.10;;;;;;;;;;4993860;28;20137;-75
2023/04/11 03:08:36;;;;;;;1.52;0.90;;;;;;;;;;4993473;28;20537;-75
2023/04/11 03:11:05;;;;;;;3.65;1.20;;;;;;;;;;4993179;28;20068;-74
2023/04/11 03:13:31;;;;;;;3.30;1.20;;;;;;;;;;5010727;28;20100;-75
2023/04/11 03:15:58;;;;;;;1.52;0.93;;;;;;;;;;4993419;28;20045;-75
2023/04/11 03:18:25;;;;;;;2.20;1.00;;;;;;;;;;4993787;28;20060;-75
2023/04/11 03:20:51;;;;;;;2.90;1.00;;;;;;;;;;4977183;28;20440;-75
2023/04/11 03:23:18;;;;;;;1.77;1.10;;;;;;;;;;4993240;28;20050;-75
2023/04/11 03:25:46;;;;;;;1.10;0.98;;;;;;;;;;4994030;28;20060;-76
2023/04/11 03:28:14;;;;;;;3.28;1.13;;;;;;;;;;4993632;28;20102;-76
2023/04/11 03:30:41;;;;;;;2.38;0.93;;;;;;;;;;4992922;28;20053;-76
2023/04/11 03:33:08;;;;;;;3.28;0.93;;;;;;;;;;4993338;28;20064;-74
2023/04/11 03:35:35;;;;;;;4.13;1.08;;;;;;;;;;4993126;28;20569;-74
2023/04/11 03:38:02;;;;;;;2.33;0.80;;;;;;;;;;4977350;28;20054;-74
2023/04/11 03:40:29;;;;;;;2.05;0.80;;;;;;;;;;4993035;28;20056;-74
2023/04/11 03:42:56;;;;;;;5.85;0.90;;;;;;;;;;4996253;28;20050;-75
2023/04/11 03:45:22;;;;;;;1.85;0.93;;;;;;;;;;4980624;28;20060;-75
2023/04/11 03:47:49;;;;;;;3.25;1.63;;;;;;;;;;5013129;28;20056;-75
2023/04/11 03:50:16;;;;;;;1.75;0.73;;;;;;;;;;4980671;28;20149;-75
2023/04/11 03:52:43;;;;;;;2.33;0.70;;;;;;;;;;5013008;28;20056;-75
2023/04/11 03:55:11;;;;;;;2.72;0.82;;;;;;;;;;4980584;28;20487;-75
2023/04/11 03:57:37;;;;;;;2.63;0.65;;;;;;;;;;4996554;28;20536;-75
2023/04/11 04:00:05;;;;;;;2.17;0.85;;;;;;;;;;5012837;28;20422;-75
2023/04/11 04:02:32;;;;;;;4.07;0.85;;;;;;;;;;4996657;28;20060;-75
2023/04/11 04:05:00;;;;;;;6.93;1.55;;;;;;;;;;4996417;28;20403;-75
2023/04/11 04:07:27;;;;;;;4.32;1.13;;;;;;;;;;4998033;28;20058;-75
2023/04/11 04:09:54;;;;;;;5.35;2.03;;;;;;;;;;4980368;28;20137;-75
2023/04/11 04:12:20;;;;;;;5.93;1.23;;;;;;;;;;4996366;28;20528;-75
2023/04/11 04:14:47;;;;;;;4.30;1.13;;;;;;;;;;4996468;28;20101;-75
2023/04/11 04:17:15;;;;;;;4.93;0.90;;;;;;;;;;4996404;28;20058;-75
2023/04/11 04:19:42;;;;;;;5.53;1.02;;;;;;;;;;4996308;28;20058;-74
2023/04/11 04:22:10;;;;;;;4.63;1.00;;;;;;;;;;4995669;28;20069;-75
2023/04/11 04:24:38;;;;;;;3.17;1.67;;;;;;;;;;4996120;28;20410;-75
2023/04/11 04:27:08;;;;;;;4.13;1.58;;;;;;;;;;5012042;28;20065;-75
2023/04/11 04:29:44;;;;;;;4.95;1.15;;;;;;;;;;4996203;28;20052;-74
2023/04/11 04:32:13;;;;;;;5.75;0.80;;;;;;;;;;4996196;28;20050;-75
2023/04/11 04:34:48;;;;;;;2.95;1.70;;;;;;;;;;4995930;28;20490;-74
2023/04/11 04:37:22;;;;;;;4.63;0.98;;;;;;;;;;4995752;28;20461;-74
2023/04/11 04:39:49;;;;;;;3.85;0.98;;;;;;;;;;4995792;28;20060;-74
2023/04/11 04:42:16;;;;;;;5.40;1.17;;;;;;;;;;4995714;28;20058;-74
2023/04/11 04:44:43;;;;;;;5.63;1.75;;;;;;;;;;4995727;28;20406;-75
2023/04/11 04:47:09;;;;;;;3.53;0.80;;;;;;;;;;4995516;28;20058;-75
2023/04/11 04:49:36;;;;;;;5.50;1.17;;;;;;;;;;4995461;28;20460;-74
2023/04/11 04:52:03;;;;;;;4.00;1.20;;;;;;;;;;4994969;28;20525;-75
2023/04/11 04:54:30;;;;;;;5.85;1.15;;;;;;;;;;4995573;28;20049;-74
2023/04/11 04:56:57;;;;;;;3.05;1.00;;;;;;;;;;4995100;28;20065;-75
2023/04/11 04:59:24;;;;;;;1.63;0.65;;;;;;;;;;4995470;28;20057;-74
2023/04/11 05:01:52;;;;;;;4.45;1.00;;;;;;;;;;4995052;28;20057;-74
2023/04/11 05:04:19;;;;;;;2.83;0.55;;;;;;;;;;4995327;28;20085;-74
2023/04/11 05:06:46;;;;;;;4.20;0.77;;;;;;;;;;4995546;28;20051;-74
2023/04/11 05:09:13;;;;;;;2.03;0.50;;;;;;;;;;5011285;28;20054;-74
2023/04/11 05:11:40;;;;;;;1.38;0.50;;;;;;;;;;4995029;28;20061;-74
2023/04/11 05:14:07;;;;;;;2.58;0.70;;;;;;;;;;4995085;28;20173;-74
2023/04/11 05:16:33;;;;;;;4.25;0.73;;;;;;;;;;5010829;28;20050;-74
2023/04/11 05:19:00;;;;;;;1.70;0.98;;;;;;;;;;4994836;28;20065;-74
2023/04/11 05:21:27;;;;;;;1.83;0.70;;;;;;;;;;4994816;28;20101;-74
2023/04/11 05:23:54;;;;;;;2.58;0.60;;;;;;;;;;4994641;28;20057;-74
2023/04/11 05:26:21;;;;;;;3.40;0.40;;;;;;;;;;4994864;28;20053;-74
2023/04/11 05:28:47;;;;;;;1.60;0.60;;;;;;;;;;4994687;28;20056;-74
2023/04/11 05:31:15;;;;;;;3.28;0.90;;;;;;;;;;4994901;28;20060;-74
2023/04/11 05:33:42;;;;;;;3.00;0.90;;;;;;;;;;4994552;28;20049;-74
2023/04/11 05:36:13;;;;;;;3.10;0.88;;;;;;;;;;4994779;28;20054;-74
2023/04/11 05:38:40;;;;;;;2.45;0.77;;;;;;;;;;5010714;28;20061;-74
2023/04/11 05:41:08;;;;;;;1.85;0.55;;;;;;;;;;4994453;28;20053;-74
2023/04/11 05:43:34;;;;;;;1.48;0.60;;;;;;;;;;4994635;28;20049;-74
2023/04/11 05:46:02;;;;;;;6.60;1.00;;;;;;;;;;4994260;28;20501;-74
2023/04/11 05:48:29;;;;;;;0.63;0.60;;;;;;;;;;4994804;28;20139;-74
2023/04/11 05:50:59;;;;;;;2.55;1.45;;;;;;;;;;4994482;28;20073;-74
2023/04/11 05:53:25;;;;;;;4.03;0.63;;;;;;;;;;4994209;28;20046;-74
2023/04/11 05:55:52;;;;;;;2.00;0.70;;;;;;;;;;4994464;28;20096;-74
2023/04/11 05:58:19;;;;;;;2.95;0.60;;;;;;;;;;5010484;28;20140;-74
2023/04/11 06:00:46;;;;;;;1.88;0.90;;;;;;;;;;4994266;28;20054;-74
2023/04/11 06:03:12;;;;;;;2.05;0.60;;;;;;;;;;4994224;28;20064;-74
2023/04/11 06:05:40;;;;;;;1.15;0.80;;;;;;;;;;4977831;28;20104;-74
2023/04/11 06:08:07;;;;;;;1.75;0.63;;;;;;;;;;4994301;28;20096;-74
2023/04/11 06:10:34;;;;;;;1.95;0.65;;;;;;;;;;4993857;28;20516;-74
2023/04/11 06:13:01;;;;;;;1.70;0.50;;;;;;;;;;4994000;28;20053;-74
2023/04/11 06:15:28;;;;;;;2.63;1.00;;;;;;;;;;5011085;28;20054;-74
2023/04/11 06:17:55;;;;;;;0.98;0.60;;;;;;;;;;4994129;28;20088;-74
2023/04/11 06:20:24;;;;;;;1.75;0.60;;;;;;;;;;4993965;28;20418;-74
2023/04/11 06:22:50;;;;;;;2.70;0.70;;;;;;;;;;5009899;28;20050;-74
2023/04/11 06:25:19;;;;;;;4.00;0.75;;;;;;;;;;4993600;28;20391;-74
2023/04/11 06:27:46;;;;;;;4.82;1.10;;;;;;;;;;4993606;28;20248;-74
2023/04/11 06:30:13;;;;;;;3.38;1.13;;;;;;;;;;4993915;28;20446;-74
2023/04/11 06:32:40;;;;;;;2.63;0.80;;;;;;;;;;4993618;28;20064;-74
2023/04/11 06:35:07;;;;;;;4.85;1.08;;;;;;;;;;4993713;28;20526;-74
2023/04/11 06:37:34;;;;;;;1.38;0.57;;;;;;;;;;5011294;28;20057;-74
2023/04/11 06:40:00;;;;;;;1.63;0.70;;;;;;;;;;4993472;28;20064;-74
2023/04/11 06:42:27;;;;;;;3.58;0.90;;;;;;;;;;5009623;28;20502;-74
2023/04/11 06:44:55;;;;;;;2.97;1.15;;;;;;;;;;5009749;28;20046;-74
2023/04/11 06:47:21;;;;;;;3.15;0.75;;;;;;;;;;4993529;28;20054;-74
2023/04/11 06:49:48;;;;;;;0.80;0.50;;;;;;;;;;4993573;28;20136;-74
2023/04/11 06:52:15;;;;;;;2.92;0.60;;;;;;;;;;4993775;28;20050;-74
2023/04/11 06:54:42;;;;;;;4.55;0.90;;;;;;;;;;4993497;28;20093;-74
2023/04/11 06:57:09;;;;;;;3.28;0.50;;;;;;;;;;4993516;28;20088;-74
2023/04/11 06:59:36;;;;;;;4.18;0.93;;;;;;;;;;4993733;28;20104;-74
2023/04/11 07:02:03;;;;;;;2.67;0.98;;;;;;;;;;4993462;28;20096;-74
2023/04/11 07:04:29;;;;;;;2.55;0.70;;;;;;;;;;4993649;28;20053;-74
2023/04/11 07:06:56;;;;;;;3.58;0.40;;;;;;;;;;5009619;28;20046;-74
2023/04/11 07:09:23;;;;;;;2.78;0.60;;;;;;;;;;4993350;28;20520;-74
2023/04/11 07:11:50;;;;;;;1.65;0.70;;;;;;;;;;4977381;28;20062;-74
2023/04/11 07:14:17;;;;;;;3.80;0.70;;;;;;;;;;4993109;28;20145;-74
2023/04/11 07:16:44;;;;;;;1.98;0.60;;;;;;;;;;5011050;28;20089;-74
2023/04/11 07:19:11;;;;;;;2.92;0.75;;;;;;;;;;4998217;28;20057;-74
2023/04/11 07:21:37;;;;;;;2.15;0.60;;;;;;;;;;5000994;28;20053;-73
2023/04/11 07:24:09;;;;;;;4.28;0.80;;;;;;;;;;5013898;28;20050;-74
2023/04/11 07:26:37;;;;;;;3.80;1.10;;;;;;;;;;4998026;28;20057;-74
2023/04/11 07:29:04;;;;;;;3.58;0.80;;;;;;;;;;5013928;28;20164;-74
2023/04/11 07:31:35;;;;;;;1.63;0.80;;;;;;;;;;4997521;28;20056;-74
2023/04/11 07:34:02;;;;;;;2.83;0.95;;;;;;;;;;4997022;28;20050;-74
2023/04/11 07:36:30;;;;;;;5.65;0.95;;;;;;;;;;4996901;28;20050;-74
2023/04/11 07:38:58;;;;;;;4.30;0.95;;;;;;;;;;4996934;28;20057;-74
2023/04/11 07:41:25;;;;;;;5.22;0.68;;;;;;;;;;4996930;28;20061;-74
2023/04/11 07:43:52;;;;;;;4.60;1.33;;;;;;;;;;4996756;28;20528;-73
2023/04/11 07:46:18;;;;;;;3.38;1.50;;;;;;;;;;4996726;28;20108;-73
2023/04/11 07:48:45;;;;;;;2.67;0.90;;;;;;;;;;4996620;28;20100;-74
2023/04/11 07:51:12;;;;;;;3.20;0.90;;;;;;;;;;5014888;28;20069;-73
2023/04/11 07:53:39;;;;;;;4.13;0.80;;;;;;;;;;4996610;28;20053;-73
2023/04/11 07:56:06;;;;;;;2.65;0.98;;;;;;;;;;4996435;28;20054;-73
2023/04/11 07:58:33;;;;;;;4.68;1.27;;;;;;;;;;4996273;28;20053;-74
2023/04/11 08:01:01;;;;;;;4.80;1.45;;;;;;;;;;4996233;28;20109;-73
2023/04/11 08:03:28;;;;;;;4.50;0.80;;;;;;;;;;5012393;28;20132;-73
2023/04/11 08:05:55;;;;;;;4.47;0.95;;;;;;;;;;4996402;28;20061;-73
2023/04/11 08:08:22;;;;;;;5.03;1.30;;;;;;;;;;4996190;28;20061;-73
2023/04/11 08:10:49;;;;;;;3.42;1.58;;;;;;;;;;4996044;28;20060;-73
2023/04/11 08:13:17;;;;;;;5.50;1.27;;;;;;;;;;4996508;28;20062;-73
2023/04/11 08:15:44;;;;;;;3.53;0.80;;;;;;;;;;4995964;28;20426;-73
2023/04/11 08:18:11;;;;;;;4.35;1.17;;;;;;;;;;5012151;28;20053;-73
2023/04/11 08:20:39;;;;;;;6.85;1.13;;;;;;;;;;4995728;28;20054;-73
2023/04/11 08:23:07;;;;;;;5.13;1.35;;;;;;;;;;4995985;28;20053;-74
2023/04/11 08:25:35;;;;;;;4.15;1.10;;;;;;;;;;4995944;28;20457;-73
2023/04/11 08:28:03;;;;;;;3.63;0.85;;;;;;;;;;4995452;28;20066;-74
2023/04/11 08:30:30;;;;;;;6.30;1.20;;;;;;;;;;4995548;28;20050;-73
2023/04/11 08:32:57;;;;;;;4.32;1.35;;;;;;;;;;4995564;28;20089;-73
2023/04/11 08:35:24;;;;;;;4.45;1.20;;;;;;;;;;4995753;28;20052;-74
2023/04/11 08:37:50;;;;;;;5.80;1.23;;;;;;;;;;4995831;28;20062;-74
2023/04/11 08:40:17;;;;;;;8.60;1.00;;;;;;;;;;4995621;28;20058;-73
2023/04/11 08:42:44;;;;;;;9.52;2.15;;;;;;;;;;4995718;28;20061;-73
2023/04/11 08:45:11;;;;;;;6.25;0.90;;;;;;;;;;4963492;28;20057;-74
2023/04/11 08:47:37;;;;;;;4.72;1.10;;;;;;;;;;4995753;28;20050;-73
2023/04/11 08:50:05;;;;;;;5.90;0.80;;;;;;;;;;4995607;28;20053;-73
2023/04/11 08:52:32;;;;;;;6.40;1.08;;;;;;;;;;4963636;28;20053;-74
2023/04/11 08:54:59;;;;;;;7.15;1.42;;;;;;;;;;4995593;28;20417;-73
2023/04/11 08:57:30;;;;;;;5.22;1.98;;;;;;;;;;4995425;28;20494;-73
2023/04/11 09:00:13;;;;;;;7.03;0.95;;;;;;;;;;4995048;28;20100;-73
2023/04/11 09:02:56;;;;;;;5.93;1.35;;;;;;;;;;4995562;28;20046;-73
2023/04/11 09:05:33;;;;;;;;;;;;;;;;;;4995598;28;20064;-73
2023/04/11 09:08:27;;;;;;;4.50;0.98;;;;;;;;;;4979562;28;19928;-73
2023/04/11 09:11:00;;;;;;;2.70;0.73;;;;;;;;;;4976805;28;20422;-73
2023/04/11 09:13:27;;;;;;;4.97;1.42;;;;;;;;;;4994995;28;20054;-73
2023/04/11 09:16:08;;;;;;;3.83;0.80;;;;;;;;;;4994520;28;20061;-73
2023/04/11 09:18:36;;;;;;;7.22;1.88;;;;;;;;;;4995070;28;20108;-73
2023/04/11 09:21:05;;;;;;;4.22;1.10;;;;;;;;;;5010773;28;20061;-73
2023/04/11 09:23:32;;;;;;;5.30;0.98;;;;;;;;;;4994770;28;20088;-73
2023/04/11 09:25:59;;;;;;;2.47;0.75;;;;;;;;;;4994723;28;20539;-74
2023/04/11 09:28:25;;;;;;;5.57;1.00;;;;;;;;;;4995076;28;20061;-73
2023/04/11 09:30:54;;;;;;;1.77;0.80;;;;;;;;;;4994634;28;20061;-73
2023/04/11 09:33:22;;;;;;;6.60;0.90;;;;;;;;;;5010690;28;20064;-73
2023/04/11 09:35:51;;;;;;;5.78;1.02;;;;;;;;;;4994813;28;20133;-73
2023/04/11 09:38:35;;;;;;;4.85;1.27;;;;;;;;;;4994341;28;20470;-73
2023/04/11 09:41:03;;;;;;;5.55;0.73;;;;;;;;;;5011658;28;20053;-73
2023/04/11 09:43:54;;;;;;;6.38;1.10;;;;;;;;;;4994423;28;20057;-73
2023/04/11 09:46:21;;;;;;;3.03;1.20;;;;;;;;;;4994638;28;20557;-73
2023/04/11 09:48:49;;;;;;;5.30;1.05;;;;;;;;;;4978473;28;20473;-74
2023/04/11 09:51:17;;;;;;;2.40;0.70;;;;;;;;;;4994222;28;20140;-73
2023/04/11 09:54:00;;;;;;;6.65;2.08;;;;;;;;;;4996778;28;20132;-73
2023/04/11 09:56:27;;;;;;;3.80;0.95;;;;;;;;;;5011732;28;20417;-73
2023/04/11 09:58:55;;;;;;;7.53;2.08;;;;;;;;;;4994576;28;20049;-73
2023/04/11 10:01:23;;;;;;;2.38;0.68;;;;;;;;;;4994209;28;20064;-73
2023/04/11 10:03:50;;;;;;;4.50;1.27;;;;;;;;;;4978297;28;20064;-73
2023/04/11 10:06:52;;;;;;;5.55;1.48;;;;;;;;;;4994261;28;20060;-73
2023/04/11 10:09:20;;;;;;;4.78;1.38;;;;;;;;;;4989465;28;20407;-73
2023/04/11 10:11:46;;;;;;;5.82;0.90;;;;;;;;;;4994411;28;20160;-73
2023/04/11 10:14:35;;;;;;;3.33;1.45;;;;;;;;;;4993940;28;20061;-74
2023/04/11 10:17:13;;;;;;;5.75;1.50;;;;;;;;;;4993992;28;20112;-73
2023/04/11 10:19:43;;;;;;;3.63;0.82;;;;;;;;;;4994448;28;20502;-73
2023/04/11 10:22:31;;;;;;;6.03;1.25;;;;;;;;;;4993901;28;20314;-73
2023/04/11 10:25:17;;;;;;;4.82;0.95;;;;;;;;;;4980848;28;20064;-72
2023/04/11 10:27:48;;;;;;;5.10;1.15;;;;;;;;;;4994114;28;20133;-73
2023/04/11 10:30:15;;;;;;;5.38;1.38;;;;;;;;;;4993839;28;20409;-73
2023/04/11 10:33:14;;;;;;;6.07;1.45;;;;;;;;;;4998422;28;20064;-73
2023/04/11 10:36:04;;;;;;;5.22;1.23;;;;;;;;;;4995084;28;20050;-73
2023/04/11 10:38:42;;;;;;;4.45;1.55;;;;;;;;;;5000134;28;20061;-73
2023/04/11 10:41:24;;;;;;;9.23;2.05;;;;;;;;;;4999765;28;20057;-73
2023/04/11 10:43:51;;;;;;;2.25;0.88;;;;;;;;;;5000880;28;20050;-72
2023/04/11 10:46:24;;;;;;;7.93;1.13;;;;;;;;;;5000062;28;20046;-73
2023/04/11 10:49:01;;;;;;;5.32;1.00;;;;;;;;;;4996278;28;20057;-73
2023/04/11 10:51:30;;;;;;;1.88;0.70;;;;;;;;;;4998703;28;20424;-73
2023/04/11 10:54:00;;;;;;;4.65;0.90;;;;;;;;;;4999786;28;20061;-73
2023/04/11 10:56:47;;;;;;;2.78;0.85;;;;;;;;;;4997977;28;20045;-73
2023/04/11 10:59:29;;;;;;;5.00;1.02;;;;;;;;;;4997677;28;20060;-73
2023/04/11 11:01:57;;;;;;;4.80;0.90;;;;;;;;;;4997390;28;20053;-73
2023/04/11 11:04:31;;;;;;;3.92;1.00;;;;;;;;;;4997390;28;20069;-73
2023/04/11 11:07:00;;;;;;;5.60;1.00;;;;;;;;;;4997363;28;20049;-73
2023/04/11 11:09:27;;;;;;;4.45;0.98;;;;;;;;;;4997646;28;20116;-73
2023/04/11 11:12:07;;;;;;;2.03;0.90;;;;;;;;;;4997124;28;20057;-73
2023/04/11 11:14:34;;;;;;;3.90;0.75;;;;;;;;;;5013243;28;20053;-73
2023/04/11 11:17:01;;;;;;;2.15;0.60;;;;;;;;;;4997386;28;20137;-73
2023/04/11 11:19:29;;;;;;;3.75;0.70;;;;;;;;;;4997466;28;20054;-74
2023/04/11 11:22:02;;;;;;;4.82;0.90;;;;;;;;;;4997678;28;20145;-73
2023/04/11 11:24:29;;;;;;;4.40;1.65;;;;;;;;;;4997534;28;20049;-73
2023/04/11 11:26:56;;;;;;;2.95;0.73;;;;;;;;;;4997572;28;20093;-73
2023/04/11 11:29:32;;;;;;;4.63;0.82;;;;;;;;;;4997516;28;20490;-73
2023/04/11 11:32:01;;;;;;;3.55;0.90;;;;;;;;;;4996897;28;20092;-73
2023/04/11 11:34:30;;;;;;;5.70;0.70;;;;;;;;;;4997182;28;20057;-74
2023/04/11 11:37:03;;;;;;;4.50;1.10;;;;;;;;;;4997127;28;20058;-74
2023/04/11 11:39:30;;;;;;;3.55;0.75;;;;;;;;;;4997108;28;20054;-74
2023/04/11 11:41:57;;;;;;;6.10;1.45;;;;;;;;;;4996713;28;20064;-73
2023/04/11 11:44:27;;;;;;;4.57;1.30;;;;;;;;;;4980648;28;20057;-74
2023/04/11 11:47:04;;;;;;;4.47;1.02;;;;;;;;;;4996592;28;20493;-74
2023/04/11 11:49:50;;;;;;;5.82;1.00;;;;;;;;;;4996773;28;20060;-74
2023/04/11 11:52:39;;;;;;;2.08;0.80;;;;;;;;;;4996579;28;20498;-74
2023/04/11 11:55:26;;;;;;;2.78;0.90;;;;;;;;;;4996638;28;20513;-74
2023/04/11 11:57:53;;;;;;;5.28;0.88;;;;;;;;;;4996465;28;20050;-74
2023/04/11 12:00:23;;;;;;;3.60;1.05;;;;;;;;;;5013693;28;20490;-74
2023/04/11 12:02:51;;;;;;;4.25;0.70;;;;;;;;;;4995496;28;20057;-74
2023/04/11 12:05:18;;;;;;;1.90;0.63;;;;;;;;;;4996489;28;20060;-74
2023/04/11 12:07:45;;;;;;;3.67;1.00;;;;;;;;;;4996355;28;20128;-73
2023/04/11 12:10:16;;;;;;;3.22;0.88;;;;;;;;;;4996302;28;20057;-73
2023/04/11 12:12:43;;;;;;;1.42;0.93;;;;;;;;;;4997471;28;20096;-73
2023/04/11 12:15:21;;;;;;;1.95;1.02;;;;;;;;;;4985478;28;20054;-74
2023/04/11 12:17:51;;;;;;;4.38;1.08;;;;;;;;;;4996300;28;20060;-74
2023/04/11 12:20:25;;;;;;;5.13;1.00;;;;;;;;;;4996478;28;20050;-73
2023/04/11 12:22:52;;;;;;;4.25;1.20;;;;;;;;;;4996049;28;20061;-74
2023/04/11 12:25:21;;;;;;;5.05;1.00;;;;;;;;;;4996744;28;20073;-73
2023/04/11 12:27:47;;;;;;;7.72;1.75;;;;;;;;;;4996177;28;20133;-74
2023/04/11 12:30:14;;;;;;;4.13;0.90;;;;;;;;;;4995873;28;20073;-74
2023/04/11 12:32:42;;;;;;;3.88;0.95;;;;;;;;;;4996096;28;20057;-73
2023/04/11 12:35:09;;;;;;;4.80;1.30;;;;;;;;;;4996190;28;20053;-74
2023/04/11 12:37:36;;;;;;;3.58;1.00;;;;;;;;;;5012207;28;20054;-74
2023/04/11 12:40:11;;;;;;;1.58;0.90;;;;;;;;;;4995635;28;20060;-74
2023/04/11 12:42:38;;;;;;;3.40;1.45;;;;;;;;;;4996069;28;20056;-74
2023/04/11 12:45:21;;;;;;;3.28;0.65;;;;;;;;;;4997980;28;20053;-74
2023/04/11 12:47:47;;;;;;;1.58;0.50;;;;;;;;;;4979641;28;20076;-74
2023/04/11 12:50:14;;;;;;;3.85;0.95;;;;;;;;;;5012746;28;20521;-74
2023/04/11 12:52:41;;;;;;;3.03;0.90;;;;;;;;;;4995442;28;20092;-74
2023/04/11 12:55:08;;;;;;;3.55;1.20;;;;;;;;;;5011432;28;20521;-74
2023/04/11 12:57:35;;;;;;;5.88;1.10;;;;;;;;;;4995186;28;20147;-74
2023/04/11 13:00:06;;;;;;;2.78;0.90;;;;;;;;;;4995082;28;20058;-74
2023/04/11 13:02:33;;;;;;;6.03;1.30;;;;;;;;;;5011583;28;20497;-74
2023/04/11 13:05:10;;;;;;;2.47;0.82;;;;;;;;;;4996728;28;20514;-74
2023/04/11 13:07:37;;;;;;;3.90;1.33;;;;;;;;;;4995184;28;20050;-74
2023/04/11 13:10:08;;;;;;;6.57;1.10;;;;;;;;;;4994993;28;20399;-74
2023/04/11 13:12:40;;;;;;;5.47;1.52;;;;;;;;;;4994971;28;20112;-74
2023/04/11 13:15:08;;;;;;;4.67;0.87;;;;;;;;;;4994009;28;20537;-74
2023/04/11 13:17:35;;;;;;;3.83;1.02;;;;;;;;;;4995374;28;20050;-75
2023/04/11 13:20:06;;;;;;;4.43;0.70;;;;;;;;;;5011305;28;20502;-74
2023/04/11 13:22:33;;;;;;;2.70;0.70;;;;;;;;;;4995879;28;20430;-74
2023/04/11 13:25:00;;;;;;;4.30;1.25;;;;;;;;;;5012737;28;20167;-74
2023/04/11 13:27:26;;;;;;;4.05;0.75;;;;;;;;;;5012801;28;20054;-74
2023/04/11 13:29:53;;;;;;;3.63;0.63;;;;;;;;;;4995074;28;20060;-74
2023/04/11 13:32:20;;;;;;;6.63;1.00;;;;;;;;;;4994710;28;20111;-74
2023/04/11 13:34:47;;;;;;;4.22;1.20;;;;;;;;;;4994575;28;20144;-74
2023/04/11 13:37:13;;;;;;;3.85;1.00;;;;;;;;;;4994972;28;20065;-74
2023/04/11 13:39:41;;;;;;;3.15;1.08;;;;;;;;;;4994629;28;20065;-74
2023/04/11 13:42:08;;;;;;;3.92;1.02;;;;;;;;;;4994685;28;20064;-74
2023/04/11 13:44:35;;;;;;;2.97;0.77;;;;;;;;;;4995093;28;20066;-74
2023/04/11 13:47:02;;;;;;;2.45;0.90;;;;;;;;;;4995042;28;20140;-74
2023/04/11 13:49:29;;;;;;;2.08;0.80;;;;;;;;;;5010714;28;20053;-74
2023/04/11 13:51:55;;;;;;;4.97;0.93;;;;;;;;;;4994363;28;20049;-74
2023/04/11 13:54:22;;;;;;;3.90;1.08;;;;;;;;;;4994456;28;20070;-74
2023/04/11 13:56:49;;;;;;;6.15;1.83;;;;;;;;;;4994310;28;20053;-74
2023/04/11 13:59:16;;;;;;;2.03;1.00;;;;;;;;;;4994347;28;20233;-74
2023/04/11 14:01:43;;;;;;;4.13;1.38;;;;;;;;;;4994132;28;20054;-74
2023/04/11 14:04:10;;;;;;;3.55;0.88;;;;;;;;;;5011512;28;20056;-74
2023/04/11 14:06:38;;;;;;;4.30;1.10;;;;;;;;;;4994221;28;20057;-74
2023/04/11 14:09:05;;;;;;;4.68;1.48;;;;;;;;;;4978367;28;20069;-74
2023/04/11 14:11:31;;;;;;;4.13;1.65;;;;;;;;;;4994087;28;20136;-74
2023/04/11 14:13:58;;;;;;;3.42;0.93;;;;;;;;;;4994213;28;20054;-74
2023/04/11 14:16:25;;;;;;;4.15;0.98;;;;;;;;;;4994113;28;20066;-74
2023/04/11 14:18:51;;;;;;;5.30;1.52;;;;;;;;;;4994377;28;20319;-74
2023/04/11 14:21:18;;;;;;;5.75;0.90;;;;;;;;;;5010363;28;20050;-74
2023/04/11 14:23:45;;;;;;;6.65;1.50;;;;;;;;;;4962321;28;20062;-74
2023/04/11 14:26:11;;;;;;;3.75;1.08;;;;;;;;;;4994118;28;20130;-74
2023/04/11 14:28:38;;;;;;;4.60;1.50;;;;;;;;;;4994226;28;20510;-74
2023/04/11 14:31:05;;;;;;;3.42;1.05;;;;;;;;;;4994024;28;20473;-74
2023/04/11 14:33:32;;;;;;;3.75;1.13;;;;;;;;;;4994385;28;20133;-74
2023/04/11 14:35:59;;;;;;;3.60;0.80;;;;;;;;;;4978185;28;20053;-75
2023/04/11 14:38:26;;;;;;;4.55;1.00;;;;;;;;;;4994157;28;20482;-74
2023/04/11 14:40:53;;;;;;;4.82;1.10;;;;;;;;;;4994048;28;20058;-74
2023/04/11 14:43:19;;;;;;;5.85;1.20;;;;;;;;;;4994223;28;20074;-74
2023/04/11 14:45:46;;;;;;;2.97;0.80;;;;;;;;;;4994126;28;20054;-75
2023/04/11 14:48:13;;;;;;;4.03;1.05;;;;;;;;;;4994050;28;20100;-74
2023/04/11 14:50:40;;;;;;;2.33;0.80;;;;;;;;;;5011622;28;20050;-74
2023/04/11 14:53:07;;;;;;;4.20;0.80;;;;;;;;;;4994194;28;20064;-74
2023/04/11 14:55:37;;;;;;;3.50;0.88;;;;;;;;;;4994006;28;20053;-74